Time;durP1;ratioP1;P1;durP2;ratioP2;P2;SDS_P1;SDS_P2;PMS_P1;PMS_P2;Temp;Humidity;BMP_temperature;BMP_pressure;BME280_temperature;BME280_humidity;BME280_pressure;Samples;Min_cycle;Max_cycle;Signal;HPM_P1;HPM_P2
2024/01/17 00:00:37;;;;;;;3.60;2.15;;;;;;;-0.92;73.90;99001.69;5095840;28;20398;-77
2024/01/17 00:03:07;;;;;;;1.85;1.58;;;;;;;-0.89;73.84;98994.28;5062166;28;20093;-77
2024/01/17 00:05:38;;;;;;;1.73;1.63;;;;;;;-0.86;73.87;98994.34;5097455;28;20514;-77
2024/01/17 00:08:08;;;;;;;0.93;0.93;;;;;;;-0.93;73.72;98979.94;5096937;28;20132;-77
2024/01/17 00:10:37;;;;;;;1.05;1.05;;;;;;;-0.95;73.78;98979.03;5097064;28;20416;-77
2024/01/17 00:13:06;;;;;;;0.60;0.60;;;;;;;-0.90;73.89;98997.56;5097249;28;20040;-77
2024/01/17 00:15:35;;;;;;;1.20;1.08;;;;;;;-0.97;73.88;98985.66;5095819;28;20277;-77
2024/01/17 00:18:04;;;;;;;0.50;0.50;;;;;;;-0.95;73.72;98987.41;5095333;28;20032;-77
2024/01/17 00:20:33;;;;;;;;;;;;;;;-0.99;73.79;98979.75;5095949;28;20406;-77
2024/01/17 00:23:04;;;;;;;1.00;1.00;;;;;;;-1.46;73.64;98918.94;5097282;28;19920;-77
2024/01/17 00:25:34;;;;;;;1.08;1.08;;;;;;;-1.14;73.53;98991.75;5096387;28;20785;-76
2024/01/17 00:28:03;;;;;;;15.60;4.40;;;;;;;-1.15;73.98;98995.06;5062475;28;20032;-77
2024/01/17 00:30:32;;;;;;;2.45;2.25;;;;;;;-1.18;73.76;98993.31;5096530;28;20131;-78
2024/01/17 00:33:01;;;;;;;6.82;1.65;;;;;;;-1.23;73.34;98988.94;5096933;28;20363;-76
2024/01/17 00:35:30;;;;;;;1.33;1.23;;;;;;;-1.27;73.87;98984.63;5095491;28;20046;-76
2024/01/17 00:38:00;;;;;;;1.08;1.08;;;;;;;-1.29;73.83;98982.06;5095606;28;20028;-78
2024/01/17 00:40:30;;;;;;;1.85;1.75;;;;;;;-1.29;73.42;98981.19;5096571;28;20055;-78
2024/01/17 00:42:59;;;;;;;0.95;0.95;;;;;;;-1.38;73.58;98977.59;5095326;28;20122;-78
2024/01/17 00:45:28;;;;;;;0.90;0.90;;;;;;;-1.44;73.84;98977.38;5078494;28;20048;-78
2024/01/17 00:47:57;;;;;;;1.92;1.83;;;;;;;-1.47;73.80;98974.78;5096387;28;20424;-78
2024/01/17 00:50:26;;;;;;;0.93;0.93;;;;;;;-1.51;73.61;98980.47;5096508;28;20138;-78
2024/01/17 00:52:55;;;;;;;2.22;2.13;;;;;;;-1.50;73.44;98971.31;5095211;28;20055;-78
2024/01/17 00:55:24;;;;;;;2.45;2.25;;;;;;;-1.56;73.42;98981.94;5094732;28;20056;-78
2024/01/17 00:57:54;;;;;;;5.82;1.95;;;;;;;-1.61;73.62;98983.44;5096447;28;20063;-77
2024/01/17 01:00:23;;;;;;;0.50;0.50;;;;;;;-1.61;73.63;98980.94;5095971;28;20051;-78
2024/01/17 01:02:52;;;;;;;0.50;0.50;;;;;;;-1.75;73.55;98963.75;5096381;28;20044;-78
2024/01/17 01:05:21;;;;;;;0.80;0.80;;;;;;;-1.80;73.01;98977.75;5094746;28;20269;-78
2024/01/17 01:07:51;;;;;;;1.75;1.65;;;;;;;-1.89;73.17;98984.88;5094663;28;20040;-77
2024/01/17 01:10:19;;;;;;;0.50;0.50;;;;;;;-2.36;73.29;98906.53;5095086;28;20040;-77
2024/01/17 01:12:48;;;;;;;3.50;2.08;;;;;;;-1.89;73.20;98990.75;5095965;28;20054;-77
2024/01/17 01:15:19;;;;;;;0.40;0.40;;;;;;;-1.97;73.17;98977.13;5096133;28;20032;-78
2024/01/17 01:17:48;;;;;;;0.50;0.50;;;;;;;-1.99;73.43;98972.88;5094603;28;20401;-77
2024/01/17 01:20:18;;;;;;;0.90;0.90;;;;;;;-1.96;73.58;98978.81;5094341;28;20494;-78
2024/01/17 01:22:47;;;;;;;2.95;1.95;;;;;;;-2.00;73.25;98961.16;5095962;28;20134;-78
2024/01/17 01:25:15;;;;;;;0.60;0.60;;;;;;;-1.99;73.05;98957.88;5095869;28;20054;-77
2024/01/17 01:27:45;;;;;;;0.82;0.82;;;;;;;-1.97;73.31;98957.13;5095499;28;20048;-77
2024/01/17 01:30:14;;;;;;;0.40;0.40;;;;;;;-1.98;72.96;98962.91;5077178;28;20473;-77
2024/01/17 01:32:44;;;;;;;1.52;1.45;;;;;;;-2.10;73.44;98945.81;5094343;28;20040;-77
2024/01/17 01:35:13;;;;;;;1.55;1.48;;;;;;;-2.13;73.46;98950.69;5095861;28;20052;-77
2024/01/17 01:37:42;;;;;;;0.50;0.50;;;;;;;-2.21;73.40;98947.06;5094447;28;20040;-77
2024/01/17 01:40:12;;;;;;;2.45;1.40;;;;;;;-2.25;73.38;98939.41;5094332;28;20063;-78
2024/01/17 01:42:43;;;;;;;0.55;0.55;;;;;;;-2.30;73.28;98935.88;5096015;28;20055;-77
2024/01/17 01:45:13;;;;;;;0.60;0.60;;;;;;;-2.33;73.66;98925.78;5095727;28;20134;-77
2024/01/17 01:47:42;;;;;;;0.73;0.73;;;;;;;-2.30;73.91;98929.22;5095599;28;20036;-77
2024/01/17 01:50:13;;;;;;;0.60;0.60;;;;;;;-2.36;73.43;98925.66;5094140;28;20087;-77
2024/01/17 01:52:47;;;;;;;0.45;0.45;;;;;;;-2.40;73.84;98918.84;5095475;28;20067;-77
2024/01/17 01:55:16;;;;;;;0.50;0.50;;;;;;;-2.45;74.01;98920.31;5093702;28;20085;-77
2024/01/17 01:57:50;;;;;;;0.70;0.70;;;;;;;-2.43;73.75;98923.72;5093989;28;20080;-77
2024/01/17 02:00:20;;;;;;;1.27;1.27;;;;;;;-2.47;74.00;98916.94;5094944;28;20379;-77
2024/01/17 02:02:49;;;;;;;1.15;1.08;;;;;;;-2.44;73.92;98922.00;5094203;28;20032;-77
2024/01/17 02:05:19;;;;;;;2.53;2.33;;;;;;;-2.43;73.99;98913.75;5094348;28;20081;-77
2024/01/17 02:07:50;;;;;;;0.85;0.85;;;;;;;-2.46;73.84;98919.47;5094251;28;20061;-77
2024/01/17 02:10:20;;;;;;;0.40;0.40;;;;;;;-2.51;73.74;98910.09;5095776;28;20482;-77
2024/01/17 02:12:49;;;;;;;;;;;;;;;-2.52;74.28;98909.22;5094278;28;20034;-77
2024/01/17 02:15:18;;;;;;;0.50;0.50;;;;;;;-2.53;73.78;98911.69;5095079;28;19920;-77
2024/01/17 02:17:47;;;;;;;2.58;2.15;;;;;;;-2.54;73.63;98905.00;5077035;28;20047;-77
2024/01/17 02:20:17;;;;;;;2.05;1.92;;;;;;;-2.57;74.26;98904.88;5093697;28;20036;-77
2024/01/17 02:22:47;;;;;;;2.08;1.75;;;;;;;-2.60;74.09;98899.75;5095243;28;20048;-77
2024/01/17 02:25:18;;;;;;;1.80;1.70;;;;;;;-2.71;74.01;98877.72;5094940;28;20143;-77
2024/01/17 02:27:47;;;;;;;1.23;1.15;;;;;;;-2.63;73.72;98889.66;5094673;28;20048;-77
2024/01/17 02:30:16;;;;;;;0.70;0.70;;;;;;;-2.67;73.98;98885.34;5093811;28;20054;-77
2024/01/17 02:32:45;;;;;;;0.73;0.73;;;;;;;-2.91;73.38;98853.66;5094488;28;20495;-77
2024/01/17 02:35:15;;;;;;;0.65;0.65;;;;;;;-2.81;74.09;98880.66;5093295;28;20505;-77
2024/01/17 02:37:44;;;;;;;0.50;0.50;;;;;;;-2.81;74.01;98872.34;5093506;28;20044;-76
2024/01/17 02:40:12;;;;;;;2.15;1.95;;;;;;;-2.79;74.04;98863.25;5093597;28;20040;-76
2024/01/17 02:42:43;;;;;;;0.77;0.77;;;;;;;-2.86;73.88;98872.16;5093021;28;20062;-76
2024/01/17 02:45:13;;;;;;;1.30;1.25;;;;;;;-2.91;73.81;98860.31;5094559;28;20043;-76
2024/01/17 02:47:42;;;;;;;0.55;0.55;;;;;;;-2.92;73.70;98864.44;5094347;28;20047;-77
2024/01/17 02:50:15;;;;;;;0.50;0.50;;;;;;;-3.05;73.92;98844.81;5093167;28;20040;-77
2024/01/17 02:52:44;;;;;;;0.35;0.35;;;;;;;-2.93;73.99;98859.41;5093330;28;20056;-77
2024/01/17 02:55:15;;;;;;;0.80;0.80;;;;;;;-2.95;74.19;98860.97;5092674;28;20058;-76
2024/01/17 02:57:46;;;;;;;2.05;1.52;;;;;;;-2.96;74.34;98850.16;5093191;28;20044;-76
2024/01/17 03:00:16;;;;;;;1.38;1.23;;;;;;;-2.99;73.91;98850.03;5092934;28;20126;-76
2024/01/17 03:02:46;;;;;;;0.50;0.50;;;;;;;-3.03;73.96;98848.22;5076520;28;20098;-76
2024/01/17 03:05:15;;;;;;;0.50;0.50;;;;;;;-3.05;74.48;98849.78;5094150;28;20044;-76
2024/01/17 03:07:44;;;;;;;1.90;1.77;;;;;;;-3.02;74.51;98847.41;5094432;28;20036;-76
2024/01/17 03:10:13;;;;;;;;;;;;;;;-2.97;74.50;98838.44;5094120;28;20486;-77
2024/01/17 03:12:42;;;;;;;0.70;0.70;;;;;;;-2.99;74.51;98845.03;5094278;28;19973;-77
2024/01/17 03:15:12;;;;;;;0.98;0.68;;;;;;;-3.36;74.05;98777.06;5094111;28;20070;-77
2024/01/17 03:17:42;;;;;;;0.50;0.50;;;;;;;-2.95;73.87;98846.84;5093035;28;20058;-77
2024/01/17 03:20:12;;;;;;;1.25;1.17;;;;;;;-2.99;74.54;98835.03;5093833;28;20040;-77
2024/01/17 03:22:41;;;;;;;0.85;0.85;;;;;;;-2.99;74.34;98845.03;5094014;28;20133;-76
2024/01/17 03:25:10;;;;;;;0.60;0.60;;;;;;;-3.01;74.29;98831.66;5092938;28;20060;-76
2024/01/17 03:27:39;;;;;;;0.40;0.40;;;;;;;-3.04;74.22;98836.50;5092782;28;20033;-76
2024/01/17 03:30:09;;;;;;;0.45;0.45;;;;;;;-3.05;73.93;98829.84;5092760;28;20555;-76
2024/01/17 03:32:40;;;;;;;0.50;0.50;;;;;;;-3.02;73.99;98824.94;5094147;28;20043;-76
2024/01/17 03:35:09;;;;;;;0.50;0.50;;;;;;;-3.06;74.48;98823.13;5093963;28;20462;-76
2024/01/17 03:37:38;;;;;;;0.50;0.50;;;;;;;-3.10;73.87;98815.47;5075895;28;20040;-76
2024/01/17 03:40:08;;;;;;;0.50;0.50;;;;;;;-3.13;74.29;98813.72;5094149;28;20109;-76
2024/01/17 03:42:38;;;;;;;2.05;1.95;;;;;;;-3.09;73.93;98812.16;5093961;28;20512;-76
2024/01/17 03:45:08;;;;;;;0.60;0.60;;;;;;;-3.10;74.05;98805.50;5092589;28;20041;-76
2024/01/17 03:47:37;;;;;;;;;;;;;;;-3.17;74.01;98799.44;5094318;28;20064;-76
2024/01/17 03:50:09;;;;;;;0.85;0.85;;;;;;;-3.22;74.37;98797.53;5093925;28;19981;-76
2024/01/17 03:52:38;;;;;;;1.02;0.93;;;;;;;-3.21;74.39;98785.09;5094168;28;20047;-76
2024/01/17 03:55:07;;;;;;;1.23;1.17;;;;;;;-3.16;74.44;98783.66;5093352;28;20032;-76
2024/01/17 03:57:36;;;;;;;;;;;;;;;-3.13;74.41;98771.28;5094063;28;20330;-76
2024/01/17 04:00:06;;;;;;;0.50;0.50;;;;;;;-3.12;74.36;98772.97;5092603;28;20007;-76
2024/01/17 04:02:35;;;;;;;1.63;1.52;;;;;;;-3.15;73.81;98759.56;5092343;28;20106;-76
2024/01/17 04:05:05;;;;;;;2.33;0.98;;;;;;;-3.26;73.77;98754.16;5093540;28;20044;-76
2024/01/17 04:07:35;;;;;;;0.40;0.40;;;;;;;-3.24;73.94;98752.59;5093848;28;20048;-76
2024/01/17 04:10:06;;;;;;;0.50;0.50;;;;;;;-3.23;74.37;98763.41;5093779;28;20052;-76
2024/01/17 04:12:35;;;;;;;0.57;0.57;;;;;;;-3.29;74.57;98753.19;5093697;28;20044;-77
2024/01/17 04:15:05;;;;;;;1.02;1.02;;;;;;;-3.29;74.55;98759.03;5093406;28;20387;-76
2024/01/17 04:17:35;;;;;;;0.50;0.50;;;;;;;-3.27;74.63;98747.47;5093361;28;20075;-76
2024/01/17 04:20:05;;;;;;;;;;;;;;;-3.22;74.57;98756.00;5094010;28;20048;-76
2024/01/17 04:22:36;;;;;;;0.43;0.43;;;;;;;-3.23;73.98;98764.25;5094909;28;19942;-76
2024/01/17 04:25:06;;;;;;;2.60;1.05;;;;;;;-3.21;74.57;98767.66;5096143;28;20052;-76
2024/01/17 04:27:35;;;;;;;0.63;0.60;;;;;;;-3.23;74.17;98768.38;5097220;28;20537;-76
2024/01/17 04:30:05;;;;;;;0.60;0.60;;;;;;;-3.25;74.28;98763.34;5095767;28;20043;-76
2024/01/17 04:32:36;;;;;;;0.60;0.60;;;;;;;-3.29;74.08;98766.53;5097278;28;20052;-76
2024/01/17 04:35:06;;;;;;;5.53;2.78;;;;;;;-3.31;74.35;98775.56;5095970;28;20075;-76
2024/01/17 04:37:37;;;;;;;1.08;1.08;;;;;;;-3.34;74.28;98770.47;5096948;28;20117;-76
2024/01/17 04:40:07;;;;;;;1.17;1.10;;;;;;;-3.32;74.55;98778.88;5078574;28;20089;-76
2024/01/17 04:42:36;;;;;;;2.40;2.22;;;;;;;-3.32;74.79;98768.03;5096651;28;20444;-76
2024/01/17 04:45:06;;;;;;;0.60;0.60;;;;;;;-3.33;74.70;98751.34;5095381;28;20075;-76
2024/01/17 04:47:35;;;;;;;0.60;0.60;;;;;;;-3.38;74.68;98758.66;5096546;28;20397;-76
2024/01/17 04:50:05;;;;;;;0.85;0.85;;;;;;;-3.45;74.87;98762.56;5095629;28;20458;-76
2024/01/17 04:52:34;;;;;;;0.90;0.90;;;;;;;-3.45;74.96;98756.72;5096681;28;20043;-76
2024/01/17 04:55:05;;;;;;;0.50;0.50;;;;;;;-3.38;75.22;98755.34;5096233;28;20036;-76
2024/01/17 04:57:35;;;;;;;0.98;0.98;;;;;;;-3.39;74.78;98737.03;5096605;28;20043;-76
2024/01/17 05:00:05;;;;;;;2.22;2.08;;;;;;;-3.39;74.89;98732.03;5078424;28;20048;-76
2024/01/17 05:02:34;;;;;;;2.90;2.63;;;;;;;-3.39;74.65;98729.56;5096340;28;20048;-76
2024/01/17 05:05:03;;;;;;;0.73;0.73;;;;;;;-3.41;74.78;98724.50;5096525;28;20097;-76
2024/01/17 05:07:32;;;;;;;1.50;1.30;;;;;;;-3.43;74.92;98730.19;5096463;28;20093;-76
2024/01/17 05:10:01;;;;;;;0.63;0.63;;;;;;;-3.43;74.98;98735.19;5096248;28;20040;-76
2024/01/17 05:12:33;;;;;;;1.17;1.15;;;;;;;-3.56;74.89;98700.63;5095171;28;20044;-76
2024/01/17 05:15:03;;;;;;;0.95;0.90;;;;;;;-3.45;74.59;98716.84;5096330;28;20054;-76
2024/01/17 05:17:32;;;;;;;1.65;1.55;;;;;;;-3.42;74.63;98711.97;5095068;28;20044;-76
2024/01/17 05:20:01;;;;;;;1.08;0.93;;;;;;;-3.42;74.61;98722.81;5094458;28;20087;-76
2024/01/17 05:22:30;;;;;;;1.00;0.95;;;;;;;-3.41;74.75;98716.19;5094554;28;20390;-76
2024/01/17 05:24:59;;;;;;;0.60;0.60;;;;;;;-3.41;75.17;98711.19;5095979;28;20040;-76
2024/01/17 05:27:28;;;;;;;1.50;1.25;;;;;;;-3.40;74.66;98710.38;5095752;28;20040;-76
2024/01/17 05:29:58;;;;;;;0.50;0.50;;;;;;;-3.36;75.09;98709.72;5077741;28;20044;-76
2024/01/17 05:32:27;;;;;;;0.40;0.40;;;;;;;-3.41;74.83;98708.69;5095861;28;20556;-76
2024/01/17 05:34:56;;;;;;;2.72;2.47;;;;;;;-3.42;74.96;98711.97;5095388;28;20044;-76
2024/01/17 05:37:25;;;;;;;0.50;0.50;;;;;;;-3.46;74.67;98713.50;5096287;28;20130;-76
2024/01/17 05:39:53;;;;;;;0.80;0.80;;;;;;;-3.46;74.87;98710.16;5095816;28;20494;-75
2024/01/17 05:42:22;;;;;;;1.08;1.08;;;;;;;-3.48;74.69;98716.75;5095524;28;20090;-76
2024/01/17 05:44:51;;;;;;;2.78;2.58;;;;;;;-3.47;74.95;98730.88;5095840;28;20032;-76
2024/01/17 05:47:22;;;;;;;2.15;2.05;;;;;;;-3.48;74.58;98731.69;5096151;28;20494;-76
2024/01/17 05:49:51;;;;;;;2.90;2.45;;;;;;;-3.46;74.78;98725.97;5095803;28;20062;-76
2024/01/17 05:52:20;;;;;;;1.33;1.23;;;;;;;-3.47;74.71;98723.41;5044031;28;20402;-76
2024/01/17 05:54:49;;;;;;;2.35;1.58;;;;;;;-3.47;75.23;98718.41;5093848;28;20444;-76
2024/01/17 05:57:18;;;;;;;0.60;0.60;;;;;;;-3.49;74.89;98723.38;5095752;28;20043;-76
2024/01/17 05:59:47;;;;;;;1.50;1.42;;;;;;;-3.45;74.97;98722.69;5093944;28;20508;-76
2024/01/17 06:02:16;;;;;;;1.10;1.00;;;;;;;-3.44;75.35;98723.53;5093915;28;20033;-76
2024/01/17 06:04:46;;;;;;;0.40;0.40;;;;;;;-3.48;74.79;98721.72;5095011;28;20040;-76
2024/01/17 06:07:16;;;;;;;0.60;0.47;;;;;;;-3.47;75.39;98719.28;5077139;28;20062;-76
2024/01/17 06:09:45;;;;;;;9.10;2.47;;;;;;;-3.43;75.07;98715.25;5095522;28;20040;-76
2024/01/17 06:12:13;;;;;;;2.47;2.22;;;;;;;-3.58;75.11;98699.72;5094973;28;20044;-77
2024/01/17 06:14:42;;;;;;;0.88;0.88;;;;;;;-3.56;75.10;98713.94;5095370;28;20044;-76
2024/01/17 06:17:11;;;;;;;3.17;1.40;;;;;;;-3.56;75.58;98703.97;5093859;28;20089;-77
2024/01/17 06:19:41;;;;;;;1.42;1.33;;;;;;;-3.54;75.34;98706.53;5093608;28;20040;-76
2024/01/17 06:22:12;;;;;;;1.20;1.13;;;;;;;-3.63;75.39;98696.19;5076867;28;20448;-75
2024/01/17 06:24:41;;;;;;;2.00;1.85;;;;;;;-3.56;75.87;98703.97;5094771;28;20429;-76
2024/01/17 06:27:10;;;;;;;1.80;1.67;;;;;;;-3.53;75.60;98713.22;5093343;28;20047;-75
2024/01/17 06:29:41;;;;;;;1.45;1.13;;;;;;;-3.49;75.77;98707.53;5094998;28;20105;-76
2024/01/17 06:32:11;;;;;;;1.85;1.67;;;;;;;-3.50;75.36;98708.31;5095037;28;20426;-76
2024/01/17 06:34:40;;;;;;;0.45;0.45;;;;;;;-3.46;75.67;98700.19;5093599;28;20101;-76
2024/01/17 06:37:09;;;;;;;0.45;0.45;;;;;;;-3.39;75.53;98699.63;5094638;28;20040;-75
2024/01/17 06:39:41;;;;;;;10.57;5.70;;;;;;;-3.32;75.67;98699.06;5094682;28;20042;-76
2024/01/17 06:42:10;;;;;;;3.47;1.38;;;;;;;-3.36;75.50;98667.34;5093022;28;20713;-75
2024/01/17 06:44:40;;;;;;;0.85;0.85;;;;;;;-3.24;75.59;98692.72;5093090;28;20064;-76
2024/01/17 06:47:10;;;;;;;2.92;2.67;;;;;;;-3.27;75.53;98695.09;5093209;28;20040;-76
2024/01/17 06:49:41;;;;;;;1.50;1.40;;;;;;;-3.27;75.35;98697.59;5093184;28;20047;-75
2024/01/17 06:52:10;;;;;;;1.80;1.70;;;;;;;-3.24;76.03;98695.22;5093115;28;20486;-75
2024/01/17 06:54:40;;;;;;;1.10;1.10;;;;;;;-3.26;75.69;98694.28;5092638;28;20498;-76
2024/01/17 06:57:09;;;;;;;0.50;0.50;;;;;;;-3.30;75.83;98687.50;5092891;28;20131;-75
2024/01/17 06:59:38;;;;;;;0.57;0.57;;;;;;;-3.23;76.30;98688.56;5094079;28;20055;-75
2024/01/17 07:02:09;;;;;;;0.63;0.63;;;;;;;-3.18;75.90;98682.09;5110369;28;20046;-76
2024/01/17 07:04:41;;;;;;;1.27;1.20;;;;;;;-3.12;76.16;98684.84;5114169;28;20563;-75
2024/01/17 07:07:11;;;;;;;3.88;2.65;;;;;;;-3.04;76.04;98671.84;5113378;28;20075;-75
2024/01/17 07:09:42;;;;;;;5.60;4.25;;;;;;;-2.98;76.09;98672.06;5114441;28;20039;-75
2024/01/17 07:12:11;;;;;;;4.70;4.32;;;;;;;-2.87;75.96;98680.78;5114537;28;20082;-75
2024/01/17 07:14:40;;;;;;;2.55;2.35;;;;;;;-2.81;76.12;98671.00;5114359;28;20067;-76
2024/01/17 07:17:09;;;;;;;3.20;2.90;;;;;;;-2.73;75.79;98668.78;5079291;28;20135;-76
2024/01/17 07:19:38;;;;;;;6.80;4.80;;;;;;;-2.67;76.23;98658.16;5114425;28;20044;-76
2024/01/17 07:22:09;;;;;;;2.72;2.53;;;;;;;-2.60;76.02;98657.56;5114005;28;20047;-76
2024/01/17 07:24:38;;;;;;;6.72;4.40;;;;;;;-2.53;75.88;98651.97;5113108;28;20405;-77
2024/01/17 07:27:08;;;;;;;3.83;2.85;;;;;;;-2.40;76.31;98654.09;5079335;28;20051;-77
2024/01/17 07:29:37;;;;;;;0.90;0.90;;;;;;;-2.35;76.50;98648.44;5114163;28;20040;-76
2024/01/17 07:32:06;;;;;;;1.58;1.48;;;;;;;-2.35;76.13;98633.44;5114262;28;20067;-77
2024/01/17 07:34:35;;;;;;;;;;;;;;;-2.27;76.34;98631.19;5114580;28;20043;-75
2024/01/17 07:37:04;;;;;;;0.50;0.50;;;;;;;-2.22;76.19;98630.56;5114238;28;20285;-76
2024/01/17 07:39:33;;;;;;;0.50;0.50;;;;;;;-2.14;76.01;98620.81;5114396;28;20032;-76
2024/01/17 07:42:03;;;;;;;0.70;0.70;;;;;;;-2.06;76.27;98621.88;5114092;28;20088;-75
2024/01/17 07:44:34;;;;;;;0.70;0.70;;;;;;;-1.95;76.43;98627.22;5107204;28;20043;-76
2024/01/17 07:47:03;;;;;;;1.60;1.50;;;;;;;-1.89;76.46;98610.75;5093792;28;20059;-74
2024/01/17 07:49:31;;;;;;;0.40;0.40;;;;;;;-1.80;76.20;98611.03;5092439;28;20105;-74
2024/01/17 07:52:00;;;;;;;0.50;0.50;;;;;;;-1.71;76.32;98611.34;5092339;28;20401;-75
2024/01/17 07:54:29;;;;;;;1.77;1.67;;;;;;;-1.65;76.47;98616.50;5091785;28;20048;-74
2024/01/17 07:56:57;;;;;;;0.57;0.57;;;;;;;-1.54;76.29;98599.31;5093985;28;20379;-74
2024/01/17 07:59:27;;;;;;;0.50;0.50;;;;;;;-1.47;76.46;98597.06;5097440;28;20042;-74
2024/01/17 08:01:59;;;;;;;1.02;0.98;;;;;;;-1.38;76.50;98601.44;5096163;28;20688;-74
2024/01/17 08:04:28;;;;;;;0.40;0.40;;;;;;;-1.27;76.39;98594.25;5096026;28;20048;-74
2024/01/17 08:06:57;;;;;;;1.45;1.35;;;;;;;-1.19;76.19;98597.81;5095872;28;20452;-75
2024/01/17 08:09:28;;;;;;;2.08;1.83;;;;;;;-1.14;76.26;98586.28;5096268;28;20036;-74
2024/01/17 08:11:59;;;;;;;1.83;1.70;;;;;;;-1.10;76.39;98583.03;5097061;28;20048;-76
2024/01/17 08:14:28;;;;;;;0.50;0.50;;;;;;;-1.01;76.30;98584.13;5097099;28;20128;-75
2024/01/17 08:16:58;;;;;;;0.55;0.55;;;;;;;-0.91;76.05;98585.25;5097403;28;20036;-75
2024/01/17 08:19:27;;;;;;;0.77;0.77;;;;;;;-0.81;76.10;98582.16;5095837;28;20044;-76
2024/01/17 08:21:56;;;;;;;1.57;1.47;;;;;;;-0.72;76.14;98572.41;5097099;28;20397;-75
2024/01/17 08:24:25;;;;;;;3.77;1.17;;;;;;;-1.09;75.97;98494.63;5097493;28;20777;-73
2024/01/17 08:26:54;;;;;;;3.22;2.35;;;;;;;-0.57;75.69;98571.91;5097062;28;20265;-73
2024/01/17 08:29:23;;;;;;;2.58;1.45;;;;;;;-0.47;75.84;98564.66;5096956;28;20085;-73
2024/01/17 08:31:52;;;;;;;1.00;1.00;;;;;;;-0.40;75.84;98556.50;5097034;28;20074;-73
2024/01/17 08:34:22;;;;;;;0.88;0.88;;;;;;;-0.32;75.87;98560.03;5097040;28;20098;-73
2024/01/17 08:36:54;;;;;;;1.23;1.20;;;;;;;-0.24;75.64;98558.53;5097160;28;20072;-73
2024/01/17 08:39:23;;;;;;;0.57;0.57;;;;;;;-0.15;75.18;98553.75;5097019;28;20139;-75
2024/01/17 08:41:51;;;;;;;1.50;1.40;;;;;;;-0.06;75.53;98553.97;5096858;28;20044;-75
2024/01/17 08:44:22;;;;;;;;;;;;;;;0.02;75.14;98550.78;5097350;28;20490;-75
2024/01/17 08:46:52;;;;;;;0.75;0.75;;;;;;;0.09;74.63;98555.97;5095526;28;19963;-73
2024/01/17 08:49:22;;;;;;;0.90;0.90;;;;;;;0.18;75.14;98552.81;5096623;28;20051;-74
2024/01/17 08:51:51;;;;;;;0.93;0.90;;;;;;;0.24;74.32;98540.41;5096751;28;20048;-74
2024/01/17 08:54:21;;;;;;;;;;;;;;;0.31;74.82;98539.72;5096621;28;20063;-74
2024/01/17 08:56:50;;;;;;;;;;;;;;;0.40;74.31;98539.91;5097072;28;19965;-74
2024/01/17 08:59:19;;;;;;;0.57;0.57;;;;;;;0.49;74.54;98535.06;5096265;28;20007;-74
2024/01/17 09:01:48;;;;;;;1.30;1.20;;;;;;;0.56;74.37;98542.75;5096258;28;20044;-74
2024/01/17 09:04:17;;;;;;;0.50;0.50;;;;;;;0.60;73.72;98538.66;5096200;28;20036;-73
2024/01/17 09:06:47;;;;;;;1.23;1.13;;;;;;;0.68;74.36;98532.97;5096341;28;20028;-72
2024/01/17 09:09:16;;;;;;;4.03;2.85;;;;;;;0.74;74.08;98527.22;5095142;28;20048;-73
2024/01/17 09:11:45;;;;;;;1.37;1.27;;;;;;;0.79;73.86;98523.13;5096096;28;20472;-73
2024/01/17 09:14:17;;;;;;;1.03;0.97;;;;;;;0.86;73.63;98516.56;5096413;28;20050;-73
2024/01/17 09:16:46;;;;;;;1.20;1.15;;;;;;;0.94;73.27;98520.88;5096212;28;20277;-72
2024/01/17 09:19:15;;;;;;;0.60;0.60;;;;;;;1.00;73.06;98516.00;5096771;28;20036;-72
2024/01/17 09:21:44;;;;;;;0.50;0.50;;;;;;;1.04;72.83;98510.19;5077939;28;20127;-73
2024/01/17 09:24:14;;;;;;;0.60;0.60;;;;;;;1.08;72.33;98509.41;5096149;28;20494;-72
2024/01/17 09:26:43;;;;;;;2.20;2.00;;;;;;;1.14;72.30;98499.50;5096262;28;20611;-72
2024/01/17 09:29:12;;;;;;;0.65;0.63;;;;;;;1.13;72.81;98480.19;5094729;28;20036;-72
2024/01/17 09:31:41;;;;;;;0.68;0.68;;;;;;;1.24;72.59;98481.25;5096003;28;20044;-73
2024/01/17 09:34:11;;;;;;;1.60;1.50;;;;;;;1.32;71.99;98476.31;5095861;28;20075;-73
2024/01/17 09:36:42;;;;;;;0.50;0.50;;;;;;;1.38;72.28;98478.09;5095630;28;20052;-73
2024/01/17 09:39:11;;;;;;;0.43;0.43;;;;;;;1.41;72.03;98473.13;5094538;28;20055;-73
2024/01/17 09:41:44;;;;;;;0.68;0.68;;;;;;;1.30;71.85;98443.63;5095374;28;20075;-72
2024/01/17 09:44:15;;;;;;;1.30;1.20;;;;;;;1.49;71.77;98471.59;5095863;28;20090;-72
2024/01/17 09:46:45;;;;;;;0.77;0.77;;;;;;;1.44;71.48;98453.88;5095351;28;20044;-72
2024/01/17 09:49:14;;;;;;;0.80;0.80;;;;;;;1.51;70.36;98465.75;5096198;28;20032;-73
2024/01/17 09:51:43;;;;;;;0.30;0.30;;;;;;;1.56;70.42;98458.28;5095221;28;20052;-72
2024/01/17 09:54:14;;;;;;;1.67;1.58;;;;;;;1.57;70.80;98445.72;5095086;28;20052;-73
2024/01/17 09:56:47;;;;;;;0.40;0.40;;;;;;;1.61;70.66;98447.44;5095076;28;20052;-73
2024/01/17 09:59:18;;;;;;;1.42;1.33;;;;;;;1.62;69.74;98443.28;5095399;28;20054;-73
2024/01/17 10:01:52;;;;;;;0.35;0.35;;;;;;;1.64;69.53;98451.69;5096840;28;20050;-73
2024/01/17 10:04:25;;;;;;;1.95;1.13;;;;;;;1.64;69.63;98436.59;5101114;28;20048;-72
2024/01/17 10:06:55;;;;;;;0.98;0.93;;;;;;;1.61;69.24;98431.53;5104634;28;20126;-73
2024/01/17 10:09:26;;;;;;;2.65;2.45;;;;;;;1.64;69.69;98421.50;5103950;28;20043;-74
2024/01/17 10:11:56;;;;;;;;;;;;;;;1.63;69.30;98409.78;5104550;28;20044;-73
2024/01/17 10:14:25;;;;;;;1.25;1.15;;;;;;;1.65;69.75;98403.09;5101003;28;19923;-72
2024/01/17 10:16:54;;;;;;;5.60;1.70;;;;;;;1.60;69.01;98389.63;5093730;28;20040;-73
2024/01/17 10:19:25;;;;;;;0.82;0.82;;;;;;;1.65;69.70;98403.09;5094877;28;20032;-73
2024/01/17 10:21:54;;;;;;;1.67;1.27;;;;;;;1.68;69.67;98398.13;5093691;28;20440;-73
2024/01/17 10:24:23;;;;;;;2.47;2.27;;;;;;;1.73;68.64;98396.47;5094944;28;20460;-72
2024/01/17 10:26:51;;;;;;;0.50;0.50;;;;;;;1.77;69.23;98395.72;5094856;28;20094;-74
2024/01/17 10:29:22;;;;;;;0.57;0.57;;;;;;;1.95;68.67;98385.88;5094857;28;20044;-73
2024/01/17 10:31:51;;;;;;;0.43;0.43;;;;;;;2.01;68.28;98381.78;5095079;28;20055;-72
2024/01/17 10:34:20;;;;;;;1.45;1.35;;;;;;;2.13;67.99;98367.66;5094740;28;20494;-72
2024/01/17 10:36:49;;;;;;;0.57;0.57;;;;;;;2.23;68.84;98365.22;5094644;28;20101;-74
2024/01/17 10:39:20;;;;;;;1.02;0.85;;;;;;;2.29;68.16;98366.97;5093535;28;20090;-72
2024/01/17 10:41:50;;;;;;;0.50;0.50;;;;;;;2.19;67.52;98342.53;5094693;28;20058;-72
2024/01/17 10:44:22;;;;;;;0.95;0.90;;;;;;;2.22;66.61;98350.97;5094436;28;20086;-72
2024/01/17 10:46:51;;;;;;;0.75;0.75;;;;;;;2.14;67.28;98334.94;5094455;28;20101;-73
2024/01/17 10:49:21;;;;;;;1.80;0.80;;;;;;;2.16;67.03;98328.25;5093126;28;20466;-73
2024/01/17 10:51:53;;;;;;;;;;;;;;;2.21;67.11;98325.81;5094790;28;20047;-72
2024/01/17 10:54:27;;;;;;;1.35;0.95;;;;;;;2.23;67.44;98330.00;5094125;28;19920;-72
2024/01/17 10:57:00;;;;;;;0.40;0.40;;;;;;;2.24;67.33;98321.63;5094077;28;20044;-73
2024/01/17 10:59:32;;;;;;;0.73;0.73;;;;;;;2.27;67.98;98316.66;5094404;28;20090;-72
2024/01/17 11:02:05;;;;;;;0.70;0.70;;;;;;;2.31;67.65;98308.28;5092674;28;20044;-72
2024/01/17 11:04:38;;;;;;;0.60;0.60;;;;;;;2.35;67.96;98294.88;5093881;28;20052;-73
2024/01/17 11:07:08;;;;;;;0.40;0.40;;;;;;;2.39;67.25;98296.63;5093972;28;20131;-72
2024/01/17 11:09:40;;;;;;;0.55;0.55;;;;;;;2.44;68.04;98289.97;5093929;28;20075;-72
2024/01/17 11:12:11;;;;;;;2.33;1.50;;;;;;;2.44;67.90;98274.84;5093922;28;20067;-74
2024/01/17 11:14:43;;;;;;;0.43;0.43;;;;;;;2.46;68.21;98268.16;5094229;28;20047;-73
2024/01/17 11:17:15;;;;;;;1.13;1.05;;;;;;;2.50;68.02;98269.84;5093632;28;20040;-72
2024/01/17 11:19:58;;;;;;;1.05;0.95;;;;;;;2.49;68.39;98248.03;5093884;28;20036;-73
2024/01/17 11:22:28;;;;;;;3.60;1.20;;;;;;;2.45;69.27;98225.31;5093608;28;20052;-73
2024/01/17 11:25:07;;;;;;;0.30;0.30;;;;;;;2.65;69.16;98249.00;5092532;28;20031;-74
2024/01/17 11:27:43;;;;;;;4.65;1.48;;;;;;;2.70;69.11;98243.16;5092819;28;20040;-74
2024/01/17 11:30:29;;;;;;;0.82;0.82;;;;;;;2.71;69.95;98229.72;5093851;28;20044;-73
2024/01/17 11:33:06;;;;;;;0.73;0.73;;;;;;;2.76;70.19;98216.34;5093122;28;20052;-73
2024/01/17 11:35:46;;;;;;;0.70;0.70;;;;;;;2.76;69.79;98202.03;5093710;28;20036;-72
2024/01/17 11:38:31;;;;;;;0.73;0.73;;;;;;;2.78;70.30;98204.59;5093523;28;20040;-72
2024/01/17 11:41:06;;;;;;;0.73;0.73;;;;;;;2.61;69.96;98175.13;5093919;28;20097;-73
2024/01/17 11:43:38;;;;;;;4.93;2.28;;;;;;;2.70;69.63;98172.66;5092277;28;20379;-74
2024/01/17 11:46:10;;;;;;;1.40;1.30;;;;;;;2.68;69.80;98169.28;5093501;28;20036;-73
2024/01/17 11:48:41;;;;;;;0.95;0.95;;;;;;;2.69;69.53;98155.84;5093796;28;20063;-73
2024/01/17 11:51:15;;;;;;;5.82;5.25;;;;;;;2.67;68.95;98146.59;5091645;28;20469;-73